createdAt,value
2022-09-23T00:01:22.814Z,36.40
2022-09-23T00:03:50.601Z,32.13
2022-09-23T00:06:20.865Z,34.65
2022-09-23T00:08:52.128Z,35.17
2022-09-23T00:13:54.984Z,31.20
2022-09-23T00:16:32.817Z,34.58
2022-09-23T00:19:02.295Z,31.13
2022-09-23T00:21:30.076Z,31.27
2022-09-23T00:23:57.883Z,32.33
2022-09-23T00:26:25.816Z,32.35
2022-09-23T00:28:53.415Z,29.88
2022-09-23T00:31:24.132Z,29.50
2022-09-23T00:34:00.615Z,32.55
2022-09-23T00:36:29.764Z,31.10
2022-09-23T00:38:57.441Z,34.72
2022-09-23T00:41:26.204Z,29.45
2022-09-23T00:43:57.353Z,29.15
2022-09-23T00:46:40.136Z,27.55
2022-09-23T00:49:15.188Z,31.42
2022-09-23T00:51:52.311Z,28.83
2022-09-23T00:54:24.072Z,30.98
2022-09-23T00:56:52.114Z,29.25
2022-09-23T00:59:20.869Z,30.42
2022-09-23T01:01:50.208Z,25.88
2022-09-23T01:04:17.815Z,28.98
2022-09-23T01:06:45.494Z,27.63
2022-09-23T01:09:13.075Z,29.17
2022-09-23T01:11:48.554Z,25.40
2022-09-23T01:15:01.414Z,29.73
2022-09-23T01:17:39.998Z,26.75
2022-09-23T01:20:35.745Z,29.42
2022-09-23T01:23:03.645Z,29.80
2022-09-23T01:26:09.862Z,25.30
2022-09-23T01:29:15.316Z,26.90
2022-09-23T01:31:55.737Z,26.58
2022-09-23T01:55:27.497Z,25.85
2022-09-23T01:58:01.237Z,25.92
2022-09-23T02:00:32.338Z,25.27
2022-09-23T02:03:12.900Z,32.75
2022-09-23T02:05:51.807Z,24.27
2022-09-23T02:08:28.279Z,25.15
2022-09-23T02:11:04.779Z,24.63
2022-09-23T02:13:55.908Z,30.80
2022-09-23T02:16:39.599Z,28.52
2022-09-23T02:19:15.648Z,29.27
2022-09-23T02:21:50.093Z,27.55
2022-09-23T02:24:21.587Z,28.13
2022-09-23T02:26:53.707Z,29.92
2022-09-23T02:29:38.428Z,26.33
2022-09-23T02:32:32.209Z,29.80
2022-09-23T02:35:13.079Z,28.85
2022-09-23T02:37:57.851Z,29.55
2022-09-23T02:40:31.527Z,27.27
2022-09-23T02:43:12.493Z,32.65
2022-09-23T02:45:40.206Z,32.15
2022-09-23T02:48:20.411Z,30.23
2022-09-23T02:50:48.351Z,29.90
2022-09-23T02:53:17.381Z,28.35
2022-09-23T02:55:45.063Z,30.17
2022-09-23T02:58:14.272Z,29.88
2022-09-23T03:01:16.677Z,25.60
2022-09-23T03:03:50.500Z,30.13
2022-09-23T03:06:24.230Z,33.38
2022-09-23T03:09:01.241Z,28.77
2022-09-23T03:11:29.145Z,29.55
2022-09-23T03:14:17.660Z,33.03
2022-09-23T03:17:10.684Z,29.23
2022-09-23T03:19:44.374Z,28.90
2022-09-23T03:22:18.763Z,32.03
2022-09-23T03:24:51.838Z,28.73
2022-09-23T03:27:27.697Z,29.95
2022-09-23T03:29:56.555Z,29.77
2022-09-23T03:32:28.112Z,29.98
2022-09-23T03:34:58.757Z,29.33
2022-09-23T03:37:48.397Z,31.13
2022-09-23T03:40:21.407Z,29.48
2022-09-23T03:42:49.567Z,28.75
2022-09-23T03:45:22.057Z,30.58
2022-09-23T03:47:49.749Z,30.95
2022-09-23T03:50:17.504Z,32.83
2022-09-23T03:52:45.347Z,38.85
2022-09-23T03:55:13.011Z,40.70
2022-09-23T03:57:40.810Z,74.97
2022-09-23T04:00:09.627Z,39.40
2022-09-23T04:02:41.222Z,36.40
2022-09-23T04:05:10.606Z,37.38
2022-09-23T04:07:38.696Z,32.13
2022-09-23T04:10:07.121Z,38.15
2022-09-23T04:12:34.917Z,32.53
2022-09-23T04:15:03.244Z,32.85
2022-09-23T04:17:31.082Z,30.40
2022-09-23T04:19:59.002Z,29.13
2022-09-23T04:22:26.927Z,31.35
2022-09-23T04:24:55.050Z,30.83
2022-09-23T04:27:23.050Z,28.35
2022-09-23T04:29:51.041Z,30.77
2022-09-23T04:32:18.811Z,28.85
2022-09-23T04:34:46.682Z,34.80
2022-09-23T04:37:14.529Z,30.65
2022-09-23T04:39:43.492Z,35.22
2022-09-23T04:42:11.324Z,31.17
2022-09-23T04:44:39.912Z,32.80
2022-09-23T04:47:07.643Z,29.58
2022-09-23T04:49:38.497Z,30.63
2022-09-23T04:52:06.613Z,28.85
2022-09-23T04:54:34.474Z,29.90
2022-09-23T04:57:02.307Z,31.20
2022-09-23T04:59:30.485Z,32.45
2022-09-23T05:01:58.499Z,30.83
2022-09-23T05:04:26.266Z,33.45
2022-09-23T05:06:54.043Z,32.08
2022-09-23T05:09:21.811Z,29.80
2022-09-23T05:11:49.700Z,29.77
2022-09-23T05:14:17.522Z,32.63
2022-09-23T05:16:45.453Z,28.90
2022-09-23T05:19:13.763Z,27.20
2022-09-23T05:21:41.635Z,25.30
2022-09-23T05:24:09.971Z,30.08
2022-09-23T05:26:38.556Z,33.42
2022-09-23T05:29:06.500Z,29.25
2022-09-23T05:31:35.048Z,29.42
2022-09-23T05:34:05.071Z,28.27
2022-09-23T05:36:38.337Z,30.90
2022-09-23T05:39:08.456Z,35.92
2022-09-23T05:41:37.258Z,30.98
2022-09-23T05:44:05.310Z,30.25
2022-09-23T05:46:33.749Z,34.33
2022-09-23T05:49:03.456Z,32.10
2022-09-23T05:51:33.128Z,34.25
2022-09-23T05:54:04.410Z,26.45
2022-09-23T05:56:33.947Z,36.70
2022-09-23T05:59:06.325Z,41.83
2022-09-23T06:01:36.856Z,31.25
2022-09-23T06:04:06.865Z,31.30
2022-09-23T06:06:40.098Z,29.70
2022-09-23T06:09:11.635Z,33.38
2022-09-23T06:11:40.342Z,29.10
2022-09-23T06:14:14.967Z,32.55
2022-09-23T06:16:43.298Z,34.33
2022-09-23T06:19:11.261Z,37.25
2022-09-23T06:21:40.649Z,33.42
2022-09-23T06:24:09.462Z,32.58
2022-09-23T06:26:38.407Z,30.25
2022-09-23T06:29:14.735Z,37.40
2022-09-23T06:31:43.540Z,32.78
2022-09-23T06:34:14.409Z,29.73
2022-09-23T06:36:45.878Z,28.88
2022-09-23T06:39:15.715Z,36.88
2022-09-23T06:41:45.542Z,29.58
2022-09-23T06:44:14.463Z,30.30
2022-09-23T06:46:43.205Z,25.88
2022-09-23T06:49:12.656Z,28.42
2022-09-23T06:51:40.464Z,23.45
2022-09-23T06:54:08.614Z,29.60
2022-09-23T06:56:39.519Z,25.33
2022-09-23T06:59:11.085Z,25.13
2022-09-23T07:01:39.355Z,26.90
2022-09-23T07:04:07.999Z,29.17
2022-09-23T07:06:36.360Z,29.88
2022-09-23T07:09:06.068Z,31.25
2022-09-23T07:11:34.022Z,29.80
2022-09-23T07:14:01.912Z,36.58
2022-09-23T07:16:29.925Z,34.38
2022-09-23T07:18:57.890Z,30.83
2022-09-23T07:21:26.163Z,31.77
2022-09-23T07:23:56.621Z,31.13
2022-09-23T07:26:25.481Z,34.30
2022-09-23T07:28:57.073Z,23.98
2022-09-23T07:31:37.746Z,25.42
2022-09-23T07:34:11.814Z,22.95
2022-09-23T07:39:11.374Z,17.52
2022-09-23T07:41:39.680Z,18.88
2022-09-23T07:44:08.973Z,18.63
2022-09-23T07:46:37.448Z,20.58
2022-09-23T07:49:06.021Z,16.50
2022-09-23T07:51:37.067Z,20.27
2022-09-23T07:54:08.131Z,17.60
2022-09-23T07:59:11.082Z,14.50
2022-09-23T08:01:42.376Z,20.65
2022-09-23T08:04:17.926Z,18.83
2022-09-23T08:06:48.710Z,20.33
2022-09-23T08:09:18.322Z,14.48
2022-09-23T08:11:46.710Z,11.93
2022-09-23T08:14:15.369Z,13.90
2022-09-23T08:16:45.016Z,14.05
2022-09-23T08:19:13.573Z,25.25
2022-09-23T08:21:42.101Z,11.95
2022-09-23T08:24:14.756Z,15.43
2022-09-23T08:26:43.507Z,11.93
2022-09-23T08:29:17.057Z,9.07
2022-09-23T08:31:45.315Z,6.65
2022-09-23T08:34:13.523Z,8.25
2022-09-23T08:36:41.419Z,12.57
2022-09-23T08:39:14.616Z,7.63
2022-09-23T08:41:58.561Z,6.10
2022-09-23T08:44:56.465Z,9.48
2022-09-23T08:48:12.865Z,9.43
2022-09-23T08:50:59.107Z,9.05
2022-09-23T08:53:35.813Z,9.13
2022-09-23T08:56:15.187Z,16.02
2022-09-23T08:59:05.377Z,9.55
2022-09-23T09:01:39.394Z,17.65
2022-09-23T09:04:48.902Z,15.27
2022-09-23T09:07:36.154Z,15.20
2022-09-23T09:10:16.968Z,12.70
2022-09-23T09:12:52.599Z,13.05
2022-09-23T09:15:28.993Z,12.13
2022-09-23T09:18:10.425Z,10.73
2022-09-23T09:21:28.342Z,13.38
2022-09-23T09:24:00.585Z,14.10
2022-09-23T09:26:33.971Z,15.20
2022-09-23T09:29:31.257Z,13.27
2022-09-23T09:32:33.236Z,15.57
2022-09-23T09:35:20.268Z,16.25
2022-09-23T09:37:48.280Z,13.50
2022-09-23T09:40:20.878Z,11.20
2022-09-23T09:42:50.369Z,9.20
2022-09-23T09:45:30.310Z,12.02
2022-09-23T09:48:11.085Z,9.70
2022-09-23T09:50:44.733Z,10.20
2022-09-23T09:53:24.055Z,7.82
2022-09-23T09:56:07.726Z,9.60
2022-09-23T09:58:44.109Z,14.82
2022-09-23T10:01:32.214Z,11.80
2022-09-23T10:04:21.983Z,11.20
2022-09-23T10:07:06.687Z,5.55
2022-09-23T10:09:39.924Z,6.47
2022-09-23T10:12:20.039Z,9.50
2022-09-23T10:14:53.359Z,6.35
2022-09-23T10:17:24.803Z,29.00
2022-09-23T10:20:02.832Z,12.68
2022-09-23T10:22:40.685Z,9.75
2022-09-23T10:25:26.827Z,8.13
2022-09-23T10:27:54.660Z,9.90
2022-09-23T10:30:25.449Z,6.28
2022-09-23T10:32:57.714Z,6.20
2022-09-23T10:35:26.784Z,9.95
2022-09-23T10:37:56.458Z,9.68
2022-09-23T10:41:03.052Z,10.40
2022-09-23T10:44:04.439Z,9.75
2022-09-23T10:46:46.045Z,8.65
2022-09-23T10:49:43.965Z,13.52
2022-09-23T10:52:54.028Z,12.50
2022-09-23T10:55:40.031Z,13.00
2022-09-23T10:58:34.413Z,9.73
2022-09-23T11:01:06.197Z,8.48
2022-09-23T11:03:50.935Z,10.18
2022-09-23T11:06:37.588Z,11.32
2022-09-23T11:09:23.311Z,10.23
2022-09-23T11:11:55.370Z,9.82
2022-09-23T11:14:38.978Z,11.57
2022-09-23T11:17:27.989Z,11.23
2022-09-23T11:20:09.872Z,11.85
2022-09-23T11:23:15.510Z,9.32
2022-09-23T11:25:50.825Z,11.50
2022-09-23T11:28:50.908Z,12.88
2022-09-23T11:31:43.001Z,13.00
2022-09-23T11:34:28.016Z,9.10
2022-09-23T11:37:04.765Z,10.38
2022-09-23T11:39:47.623Z,7.72
2022-09-23T11:42:40.687Z,13.35
2022-09-23T11:45:17.301Z,11.75
2022-09-23T11:47:54.834Z,18.42
2022-09-23T11:50:29.804Z,20.58
2022-09-23T11:53:20.703Z,13.00
2022-09-23T11:55:58.332Z,8.48
2022-09-23T11:58:46.484Z,14.15
2022-09-23T12:01:37.367Z,16.52
2022-09-23T12:04:20.418Z,7.38
2022-09-23T12:07:01.200Z,6.45
2022-09-23T12:09:57.646Z,21.35
2022-09-23T12:12:38.452Z,8.63
2022-09-23T12:15:21.494Z,8.48
2022-09-23T12:18:27.109Z,10.25
2022-09-23T12:21:45.707Z,14.45
2022-09-23T12:24:19.287Z,8.05
2022-09-23T12:26:53.381Z,11.10
2022-09-23T12:29:23.617Z,11.57
2022-09-23T12:31:52.092Z,9.35
2022-09-23T12:34:29.292Z,17.17
2022-09-23T12:37:06.286Z,17.63
2022-09-23T12:39:37.500Z,14.52
2022-09-23T12:42:12.643Z,5.22
2022-09-23T12:44:44.387Z,4.95
2022-09-23T12:47:15.118Z,9.50
2022-09-23T12:49:48.381Z,6.85
2022-09-23T12:52:16.295Z,7.03
2022-09-23T12:54:46.954Z,11.65
2022-09-23T12:57:35.086Z,5.68
2022-09-23T13:00:12.877Z,7.00
2022-09-23T13:03:10.751Z,8.98
2022-09-23T13:06:19.517Z,11.20
2022-09-23T13:08:49.346Z,8.73
2022-09-23T13:11:26.543Z,9.73
2022-09-23T13:14:00.221Z,5.85
2022-09-23T13:16:44.001Z,4.78
2022-09-23T13:19:27.334Z,5.43
2022-09-23T13:21:55.189Z,11.77
2022-09-23T13:24:28.787Z,9.13
2022-09-23T13:27:11.647Z,28.35
2022-09-23T13:29:45.101Z,14.38
2022-09-23T13:32:15.248Z,23.05
2022-09-23T13:34:46.920Z,16.17
2022-09-23T13:37:40.712Z,15.98
2022-09-23T13:40:19.641Z,11.95
2022-09-23T13:43:01.279Z,9.38
2022-09-23T13:45:32.355Z,8.93
2022-09-23T13:48:06.343Z,8.93
2022-09-23T13:50:38.719Z,8.68
2022-09-23T13:53:10.839Z,10.45
2022-09-23T13:55:39.883Z,11.40
2022-09-23T13:58:24.210Z,10.93
2022-09-23T14:00:52.427Z,12.18
2022-09-23T14:03:37.811Z,13.73
2022-09-23T14:06:10.290Z,13.60
2022-09-23T14:08:45.717Z,19.83
2022-09-23T14:11:20.868Z,18.48
2022-09-23T14:13:58.067Z,26.20
2022-09-23T14:16:28.301Z,8.02
2022-09-23T14:19:00.819Z,9.45
2022-09-23T14:21:28.822Z,8.88
2022-09-23T14:23:56.844Z,11.40
2022-09-23T14:26:25.451Z,8.63
2022-09-23T14:28:54.161Z,7.95
2022-09-23T14:31:25.326Z,6.90
2022-09-23T14:33:53.280Z,8.85
2022-09-23T14:36:40.546Z,9.82
2022-09-23T14:39:11.493Z,8.75
2022-09-23T14:41:53.237Z,12.00
2022-09-23T14:44:49.831Z,20.40
2022-09-23T14:47:26.523Z,26.73
2022-09-23T14:50:19.229Z,10.23
2022-09-23T14:52:53.391Z,10.52
2022-09-23T14:55:21.997Z,14.10
2022-09-23T14:58:02.725Z,6.85
2022-09-23T15:00:31.679Z,12.05
2022-09-23T15:03:12.974Z,6.40
2022-09-23T15:05:47.925Z,12.27
2022-09-23T15:08:22.231Z,12.50
2022-09-23T15:10:50.699Z,12.35
2022-09-23T15:13:43.285Z,11.75
2022-09-23T15:16:14.578Z,7.57
2022-09-23T15:18:46.476Z,6.35
2022-09-23T15:21:17.888Z,36.65
2022-09-23T15:23:49.756Z,28.45
2022-09-23T15:26:20.284Z,10.43
2022-09-23T15:28:50.142Z,9.60
2022-09-23T15:31:26.715Z,6.38
2022-09-23T15:33:56.148Z,13.48
2022-09-23T15:36:26.479Z,15.50
2022-09-23T15:38:58.532Z,10.10
2022-09-23T15:41:26.440Z,8.75
2022-09-23T15:43:56.601Z,11.70
2022-09-23T15:46:28.328Z,11.53
2022-09-23T15:49:05.374Z,11.57
2022-09-23T15:51:33.407Z,9.52
2022-09-23T15:54:01.323Z,16.98
2022-09-23T15:56:29.228Z,13.68
2022-09-23T15:58:57.013Z,13.48
2022-09-23T16:01:30.804Z,11.63
2022-09-23T16:04:01.284Z,11.80
2022-09-23T16:06:29.045Z,11.90
2022-09-23T16:08:57.902Z,10.40
2022-09-23T16:11:32.020Z,23.13
2022-09-23T16:14:00.931Z,13.32
2022-09-23T16:16:28.809Z,19.45
2022-09-23T16:18:56.991Z,23.80
2022-09-23T16:21:26.891Z,15.10
2022-09-23T16:23:56.812Z,21.23
2022-09-23T16:26:27.880Z,17.48
2022-09-23T16:28:57.414Z,9.50
2022-09-23T16:31:27.875Z,14.70
2022-09-23T16:34:02.684Z,12.55
2022-09-23T16:36:39.809Z,26.80
2022-09-23T16:39:15.794Z,14.93
2022-09-23T16:41:48.360Z,16.45
2022-09-23T16:44:18.314Z,14.32
2022-09-23T16:46:46.268Z,11.45
2022-09-23T16:49:14.310Z,16.80
2022-09-23T16:51:43.747Z,12.65
2022-09-23T16:54:13.355Z,15.63
2022-09-23T16:56:46.614Z,21.98
2022-09-23T16:59:15.195Z,15.18
2022-09-23T17:02:02.830Z,18.80
2022-09-23T17:04:32.903Z,18.45
2022-09-23T17:07:03.794Z,18.48
2022-09-23T17:09:32.179Z,23.27
2022-09-23T17:12:27.994Z,18.02
2022-09-23T17:14:55.825Z,16.90
2022-09-23T17:17:23.844Z,19.88
2022-09-23T17:19:52.017Z,26.52
2022-09-23T17:22:23.011Z,17.55
2022-09-23T17:24:51.067Z,18.35
2022-09-23T17:27:19.067Z,15.50
2022-09-23T17:29:46.828Z,19.08
2022-09-23T17:32:14.574Z,19.38
2022-09-23T17:34:44.163Z,19.30
2022-09-23T17:37:11.944Z,18.65
2022-09-23T17:39:42.615Z,17.50
2022-09-23T17:42:15.548Z,19.05
2022-09-23T17:44:43.374Z,17.30
2022-09-23T17:47:11.129Z,38.03
2022-09-23T17:49:39.548Z,27.73
2022-09-23T17:52:09.007Z,22.35
2022-09-23T17:54:36.712Z,27.15
2022-09-23T17:57:04.522Z,24.77
2022-09-23T17:59:32.384Z,19.85
2022-09-23T18:02:00.470Z,19.13
2022-09-23T18:04:28.562Z,22.13
2022-09-23T18:06:56.333Z,21.58
2022-09-23T18:09:24.358Z,23.35
2022-09-23T18:11:52.513Z,27.65
2022-09-23T18:14:22.973Z,33.30
2022-09-23T18:16:54.035Z,32.13
2022-09-23T18:22:10.513Z,25.42
2022-09-23T18:24:42.436Z,26.45
2022-09-23T18:27:10.206Z,25.90
2022-09-23T18:29:39.805Z,22.58
2022-09-23T18:32:14.243Z,26.27
2022-09-23T18:34:42.358Z,24.13
2022-09-23T18:37:16.100Z,24.70
2022-09-23T18:39:45.957Z,21.40
2022-09-23T18:42:14.594Z,20.27
2022-09-23T18:44:42.524Z,19.45
2022-09-23T18:47:30.207Z,23.77
2022-09-23T18:50:24.440Z,19.23
2022-09-23T18:52:52.196Z,20.92
2022-09-23T18:55:19.902Z,24.48
2022-09-23T18:57:47.967Z,22.13
2022-09-23T19:00:15.840Z,23.65
2022-09-23T19:02:44.576Z,24.25
2022-09-23T19:05:12.476Z,22.83
2022-09-23T19:07:40.284Z,24.13
2022-09-23T19:10:08.870Z,26.00
2022-09-23T19:12:36.884Z,19.80
2022-09-23T19:15:05.127Z,23.15
2022-09-23T19:17:32.923Z,19.42
2022-09-23T19:20:00.863Z,21.20
2022-09-23T19:22:30.636Z,21.85
2022-09-23T19:27:27.651Z,26.08
2022-09-23T19:29:55.567Z,21.48
2022-09-23T19:32:27.224Z,25.17
2022-09-23T19:34:55.050Z,23.85
2022-09-23T19:37:23.244Z,26.33
2022-09-23T19:39:51.102Z,31.45
2022-09-23T19:42:18.941Z,36.78
2022-09-23T19:44:46.695Z,24.25
2022-09-23T19:47:17.851Z,26.10
2022-09-23T19:52:38.797Z,22.02
2022-09-23T19:55:07.219Z,20.65
2022-09-23T19:57:34.958Z,20.02
2022-09-23T20:00:02.810Z,20.90
2022-09-23T20:02:40.014Z,16.27
2022-09-23T20:05:11.888Z,21.55
2022-09-23T20:07:41.655Z,18.08
2022-09-23T20:10:11.084Z,19.27
2022-09-23T20:12:41.604Z,17.58
2022-09-23T20:15:11.093Z,21.83
2022-09-23T20:17:41.019Z,19.25
2022-09-23T20:20:10.839Z,22.25
2022-09-23T20:22:39.271Z,20.52
2022-09-23T20:25:13.076Z,22.63
2022-09-23T20:27:41.073Z,21.60
2022-09-23T20:30:11.806Z,22.35
2022-09-23T20:32:44.670Z,22.77
2022-09-23T20:35:13.864Z,20.80
2022-09-23T20:37:41.638Z,25.58
2022-09-23T20:40:10.430Z,27.85
2022-09-23T20:42:38.646Z,23.63
2022-09-23T20:45:08.542Z,20.60
2022-09-23T20:47:36.309Z,23.58
2022-09-23T20:50:04.342Z,20.58
2022-09-23T20:52:33.216Z,23.45
2022-09-23T20:55:02.596Z,26.73
2022-09-23T20:57:31.590Z,20.85
2022-09-23T21:00:24.712Z,32.58
2022-09-23T21:02:55.858Z,22.98
2022-09-23T21:05:24.769Z,22.67
2022-09-23T21:07:52.463Z,25.52
2022-09-23T21:10:22.844Z,24.90
2022-09-23T21:12:51.776Z,30.60
2022-09-23T21:15:19.544Z,30.88
2022-09-23T21:17:47.266Z,25.92
2022-09-23T21:20:15.898Z,25.63
2022-09-23T21:22:49.307Z,26.88
2022-09-23T21:25:27.444Z,22.90
2022-09-23T21:27:58.553Z,26.58
2022-09-23T21:30:31.197Z,28.50
2022-09-23T21:33:00.173Z,44.13
2022-09-23T21:35:28.225Z,45.42
2022-09-23T21:37:55.985Z,29.40
2022-09-23T21:40:42.026Z,35.20
2022-09-23T21:43:09.987Z,32.90
2022-09-23T21:45:37.774Z,27.05
2022-09-23T21:48:05.657Z,32.15
2022-09-23T21:50:35.875Z,31.70
2022-09-23T21:53:03.816Z,27.70
2022-09-23T21:55:31.486Z,38.15
2022-09-23T21:57:59.306Z,56.72
2022-09-23T22:00:27.050Z,34.47
2022-09-23T22:02:55.022Z,37.45
2022-09-23T22:05:23.352Z,54.03
2022-09-23T22:07:51.538Z,52.47
2022-09-23T22:10:19.206Z,30.40
2022-09-23T22:12:49.846Z,38.15
2022-09-23T22:15:19.835Z,33.78
2022-09-23T22:17:48.654Z,30.40
2022-09-23T22:20:17.185Z,27.88
2022-09-23T22:22:45.406Z,30.50
2022-09-23T22:25:13.287Z,34.35
2022-09-23T22:28:01.066Z,30.33
2022-09-23T22:31:01.484Z,34.13
2022-09-23T22:33:29.292Z,28.90
2022-09-23T22:36:03.942Z,34.15
2022-09-23T22:38:32.859Z,33.58
2022-09-23T22:41:00.638Z,31.40
2022-09-23T22:43:28.633Z,35.72
2022-09-23T22:45:56.463Z,29.52
2022-09-23T22:48:24.446Z,35.90
2022-09-23T22:50:52.290Z,34.80
2022-09-23T22:53:20.407Z,40.65
2022-09-23T22:56:00.306Z,36.10
2022-09-23T22:58:32.470Z,30.23
2022-09-23T23:01:02.707Z,33.50
2022-09-23T23:03:33.219Z,33.85
2022-09-23T23:06:02.479Z,29.58
2022-09-23T23:08:31.117Z,30.73
2022-09-23T23:11:05.672Z,34.15
2022-09-23T23:13:34.444Z,30.60
2022-09-23T23:16:11.893Z,34.33
2022-09-23T23:18:41.825Z,36.60
2022-09-23T23:21:15.280Z,39.33
2022-09-23T23:23:45.717Z,34.90
2022-09-23T23:26:22.603Z,34.03
2022-09-23T23:28:51.923Z,30.45
2022-09-23T23:31:22.055Z,28.33
2022-09-23T23:34:16.770Z,33.10
2022-09-23T23:37:15.833Z,35.25
2022-09-23T23:39:49.518Z,42.65
2022-09-23T23:42:17.843Z,36.22
2022-09-23T23:44:49.123Z,33.67
2022-09-23T23:47:17.056Z,31.73
2022-09-23T23:49:44.942Z,36.65
2022-09-23T23:52:12.787Z,33.47
2022-09-23T23:54:40.759Z,35.65
2022-09-23T23:57:11.891Z,42.53
2022-09-23T23:59:39.791Z,37.78
